Time;durP1;ratioP1;P1;durP2;ratioP2;P2;SDS_P1;SDS_P2;PMS_P1;PMS_P2;Temp;Humidity;BMP_temperature;BMP_pressure;BME280_temperature;BME280_humidity;BME280_pressure;Samples;Min_cycle;Max_cycle;Signal;HPM_P1;HPM_P2
2022/05/10 00:01:21;;;;;;;9.88;7.72;;;13.40;98.40;;;;;;4176342;28;20072;-76
2022/05/10 00:03:30;;;;;;;9.07;7.85;;;13.40;97.90;;;;;;4174537;28;20128;-77
2022/05/10 00:05:40;;;;;;;8.02;7.38;;;13.40;98.20;;;;;;4175742;28;20104;-76
2022/05/10 00:07:42;;;;;;;9.25;7.90;;;13.30;98.40;;;;;;4174576;28;20149;-75
2022/05/10 00:09:44;;;;;;;8.88;8.15;;;13.20;99.20;;;;;;4176308;28;20153;-78
2022/05/10 00:11:46;;;;;;;10.05;8.18;;;13.10;99.90;;;;;;4180463;28;20064;-77
2022/05/10 00:13:48;;;;;;;9.43;8.25;;;13.00;99.90;;;;;;4181626;28;20096;-77
2022/05/10 00:15:50;;;;;;;9.07;8.25;;;13.00;99.90;;;;;;4174185;28;20041;-78
2022/05/10 00:17:52;;;;;;;8.88;8.15;;;13.00;99.90;;;;;;4172598;28;20169;-76
2022/05/10 00:19:54;;;;;;;8.48;7.68;;;13.00;99.90;;;;;;4180750;28;20068;-77
2022/05/10 00:21:57;;;;;;;8.95;7.95;;;13.10;99.90;;;;;;4170948;28;21101;-77
2022/05/10 00:23:59;;;;;;;8.25;7.50;;;13.00;99.90;;;;;;4186772;28;20053;-76
2022/05/10 00:26:01;;;;;;;8.73;7.85;;;13.00;99.90;;;;;;4180240;28;20053;-77
2022/05/10 00:28:03;;;;;;;8.05;7.10;;;13.10;99.90;;;;;;4181745;28;20064;-76
2022/05/10 00:30:06;;;;;;;8.57;7.82;;;13.10;99.90;;;;;;4169516;28;20066;-75
2022/05/10 00:32:09;;;;;;;8.45;7.70;;;13.10;99.90;;;;;;4176436;28;20062;-76
2022/05/10 00:34:15;;;;;;;8.40;7.60;;;13.10;99.40;;;;;;4179926;28;20092;-76
2022/05/10 00:36:21;;;;;;;9.20;8.23;;;13.10;99.60;;;;;;4168795;28;20060;-77
2022/05/10 00:38:30;;;;;;;7.88;7.38;;;13.10;99.60;;;;;;4169277;28;20161;-76
2022/05/10 00:40:36;;;;;;;8.50;7.60;;;13.00;99.60;;;;;;4169711;28;20084;-75
2022/05/10 00:43:01;;;;;;;8.80;8.10;;;12.90;99.90;;;;;;4172501;28;20176;-77
2022/05/10 00:45:15;;;;;;;8.45;7.75;;;12.90;99.90;;;;;;4176771;28;20164;-75
2022/05/10 00:47:33;;;;;;;8.27;7.57;;;12.80;99.90;;;;;;4175259;28;20935;-76
2022/05/10 00:49:57;;;;;;;8.82;8.00;;;12.80;99.90;;;;;;4179764;28;20900;-77
2022/05/10 00:52:10;;;;;;;7.82;7.10;;;12.80;99.90;;;;;;4174204;28;20088;-77
2022/05/10 00:54:41;;;;;;;8.23;7.40;;;12.80;99.90;;;;;;4179176;28;20053;-77
2022/05/10 00:56:54;;;;;;;9.07;8.18;;;12.80;99.90;;;;;;4174609;28;20120;-77
2022/05/10 00:59:11;;;;;;;13.60;7.90;;;12.80;99.90;;;;;;4188232;28;21325;-77
2022/05/10 01:01:18;;;;;;;8.52;7.82;;;12.60;99.90;;;;;;4178688;28;20147;-77
2022/05/10 01:03:37;;;;;;;8.73;7.88;;;12.50;99.90;;;;;;4175221;28;20057;-77
2022/05/10 01:05:58;;;;;;;11.13;7.63;;;12.50;99.90;;;;;;4176927;28;20793;-77
2022/05/10 01:08:21;;;;;;;8.00;7.40;;;12.40;99.90;;;;;;4180187;28;20084;-78
2022/05/10 01:10:51;;;;;;;9.50;8.52;;;12.50;99.90;;;;;;4174815;28;20884;-77
2022/05/10 01:13:24;;;;;;;8.88;7.65;;;12.50;99.90;;;;;;4173891;28;20085;-77
2022/05/10 01:15:27;;;;;;;7.93;7.32;;;12.50;99.90;;;;;;4179808;28;20061;-76
2022/05/10 01:17:29;;;;;;;8.38;7.63;;;12.50;99.90;;;;;;4175156;28;20080;-77
2022/05/10 01:19:30;;;;;;;10.38;7.95;;;12.40;99.90;;;;;;4176712;28;20046;-78
2022/05/10 01:21:53;;;;;;;8.45;7.63;;;12.40;99.90;;;;;;4176769;28;20060;-77
2022/05/10 01:24:13;;;;;;;9.23;8.18;;;12.50;99.90;;;;;;4174050;28;20213;-78
2022/05/10 01:26:29;;;;;;;7.65;7.00;;;12.50;99.90;;;;;;4172681;28;20081;-77
2022/05/10 01:28:44;;;;;;;7.78;7.18;;;12.50;99.90;;;;;;4171179;28;20063;-78
2022/05/10 01:30:46;;;;;;;9.80;7.95;;;12.50;99.90;;;;;;4178578;28;20911;-76
2022/05/10 01:35:26;;;;;;;9.02;8.15;;;12.50;99.90;;;;;;4174613;28;20084;-78
2022/05/10 01:37:32;;;;;;;7.95;7.25;;;12.40;99.90;;;;;;4174681;28;20058;-76
2022/05/10 01:39:45;;;;;;;9.18;8.35;;;12.50;99.90;;;;;;4174271;28;20936;-78
2022/05/10 01:41:48;;;;;;;10.98;7.78;;;12.50;99.90;;;;;;4175127;28;20066;-77
2022/05/10 01:43:56;;;;;;;9.32;8.43;;;12.50;99.90;;;;;;4183953;28;20068;-76
2022/05/10 01:46:10;;;;;;;13.05;8.35;;;12.50;99.90;;;;;;4178837;28;20065;-75
2022/05/10 01:48:17;;;;;;;11.05;8.60;;;12.40;99.90;;;;;;4183606;28;20053;-74
2022/05/10 01:50:25;;;;;;;9.90;7.63;;;12.40;99.90;;;;;;4183489;28;20065;-75
2022/05/10 01:53:10;;;;;;;8.45;7.72;;;12.40;99.90;;;;;;4181730;28;20069;-75
2022/05/10 01:55:38;;;;;;;8.43;7.63;;;12.50;99.90;;;;;;4148164;28;20180;-74
2022/05/10 01:57:39;;;;;;;9.25;8.30;;;12.50;99.90;;;;;;4170758;28;20091;-77
2022/05/10 01:59:50;;;;;;;9.02;8.30;;;12.40;99.90;;;;;;4198706;28;20167;-75
2022/05/10 02:01:54;;;;;;;11.55;8.95;;;12.40;99.90;;;;;;4179947;28;20082;-75
2022/05/10 02:04:05;;;;;;;9.20;8.40;;;12.40;99.90;;;;;;4181012;28;20061;-74
2022/05/10 02:06:23;;;;;;;8.25;7.55;;;12.40;99.90;;;;;;4180648;28;20053;-74
2022/05/10 02:08:33;;;;;;;7.85;7.20;;;12.30;99.90;;;;;;4176172;28;20104;-75
2022/05/10 02:10:40;;;;;;;9.27;8.40;;;12.30;99.90;;;;;;4178869;28;20057;-75
2022/05/10 02:12:47;;;;;;;11.65;9.80;;;12.30;99.90;;;;;;4182764;28;20830;-75
2022/05/10 02:14:54;;;;;;;14.45;11.48;;;12.30;99.90;;;;;;4168533;28;20061;-74
2022/05/10 02:17:02;;;;;;;18.30;13.02;;;12.30;99.90;;;;;;4181493;28;20057;-75
2022/05/10 02:19:24;;;;;;;14.63;13.15;;;12.30;99.90;;;;;;4179959;28;20784;-75
2022/05/10 02:21:43;;;;;;;14.43;12.18;;;12.20;99.90;;;;;;4174079;28;20784;-75
2022/05/10 02:24:00;;;;;;;12.98;11.75;;;12.20;99.90;;;;;;4176600;28;20057;-74
2022/05/10 02:26:13;;;;;;;13.95;12.55;;;12.20;99.90;;;;;;4181552;28;20061;-74
2022/05/10 02:28:21;;;;;;;15.85;13.13;;;12.10;99.90;;;;;;4175810;28;20062;-74
2022/05/10 02:30:27;;;;;;;17.98;13.38;;;12.10;99.90;;;;;;4180924;28;20088;-74
2022/05/10 02:33:27;;;;;;;14.07;12.52;;;12.10;99.90;;;;;;4182333;28;20064;-74
2022/05/10 02:35:07;;;;;;;18.45;11.95;;;12.00;99.90;;;;;;4163266;28;20160;-74
2022/05/10 02:37:09;;;;;;;12.60;11.30;;;12.00;99.90;;;;;;4182893;28;20054;-75
2022/05/10 02:39:11;;;;;;;13.82;9.63;;;12.10;99.90;;;;;;4180759;28;20760;-75
2022/05/10 02:41:22;;;;;;;14.75;10.75;;;12.10;99.90;;;;;;4170841;28;20336;-75
2022/05/10 02:43:39;;;;;;;12.05;10.80;;;12.10;99.90;;;;;;4176969;28;20856;-75
2022/05/10 02:45:42;;;;;;;12.02;10.45;;;12.00;99.90;;;;;;4174428;28;20058;-75
2022/05/10 02:47:47;;;;;;;9.88;8.95;;;12.00;99.90;;;;;;4182419;28;20057;-74
2022/05/10 02:49:49;;;;;;;10.27;9.38;;;12.00;99.90;;;;;;4182664;28;20061;-75
2022/05/10 02:51:50;;;;;;;10.15;9.20;;;12.00;99.90;;;;;;4182180;28;20795;-75
2022/05/10 02:53:52;;;;;;;9.65;8.75;;;12.00;99.90;;;;;;4181123;28;20147;-75
2022/05/10 02:56:06;;;;;;;11.43;9.63;;;12.00;99.90;;;;;;4182098;28;20057;-75
2022/05/10 02:58:35;;;;;;;11.73;9.43;;;12.00;99.90;;;;;;4182369;28;20626;-75
2022/05/10 03:00:37;;;;;;;11.23;9.52;;;12.00;99.90;;;;;;4125434;28;20050;-74
2022/05/10 03:02:43;;;;;;;12.50;9.55;;;12.00;99.90;;;;;;4166979;28;20097;-74
2022/05/10 03:04:53;;;;;;;11.55;8.63;;;11.90;99.90;;;;;;4181200;28;20054;-75
2022/05/10 03:06:55;;;;;;;11.13;9.93;;;11.90;99.90;;;;;;4182703;28;20053;-74
2022/05/10 03:08:58;;;;;;;10.60;9.55;;;11.90;99.90;;;;;;4178742;28;20152;-75
2022/05/10 03:11:00;;;;;;;10.20;8.20;;;11.90;99.90;;;;;;4179965;28;20060;-74
2022/05/10 03:13:02;;;;;;;10.90;9.85;;;11.90;99.90;;;;;;4182074;28;20057;-75
2022/05/10 03:15:05;;;;;;;12.93;11.45;;;11.80;99.90;;;;;;4182155;28;20057;-74
2022/05/10 03:17:10;;;;;;;12.25;11.23;;;11.80;99.90;;;;;;4169774;28;20785;-74
2022/05/10 03:19:12;;;;;;;13.77;12.10;;;11.80;99.90;;;;;;4179678;28;20060;-74
2022/05/10 03:21:14;;;;;;;21.02;15.35;;;11.80;99.90;;;;;;4175547;28;20097;-74
2022/05/10 03:23:16;;;;;;;17.90;14.48;;;11.80;99.90;;;;;;4170573;28;20058;-74
2022/05/10 03:25:18;;;;;;;12.95;11.30;;;11.80;99.90;;;;;;4181092;28;20062;-75
2022/05/10 03:27:20;;;;;;;11.23;9.90;;;11.60;99.90;;;;;;4181015;28;20064;-74
2022/05/10 03:29:22;;;;;;;11.48;10.45;;;11.60;99.90;;;;;;4173145;28;20057;-74
2022/05/10 03:31:26;;;;;;;11.35;10.20;;;11.60;99.90;;;;;;4175528;28;20152;-75
2022/05/10 03:33:28;;;;;;;10.48;9.48;;;11.60;99.90;;;;;;4174224;28;20877;-76
2022/05/10 03:35:29;;;;;;;12.77;11.40;;;11.60;99.90;;;;;;4182024;28;20110;-75
2022/05/10 03:37:31;;;;;;;13.20;11.90;;;11.60;99.90;;;;;;4182251;28;20057;-75
2022/05/10 03:39:33;;;;;;;13.95;11.55;;;11.60;99.90;;;;;;4178859;28;20058;-74
2022/05/10 03:41:34;;;;;;;10.75;9.75;;;11.70;99.90;;;;;;4173624;28;20049;-74
2022/05/10 03:43:36;;;;;;;11.77;10.75;;;11.60;99.90;;;;;;4181395;28;20057;-74
2022/05/10 03:45:38;;;;;;;16.42;10.95;;;11.60;99.90;;;;;;4180408;28;20784;-74
2022/05/10 03:47:40;;;;;;;11.82;10.02;;;11.60;99.90;;;;;;4180143;28;20061;-74
2022/05/10 03:49:42;;;;;;;10.88;9.07;;;11.60;99.90;;;;;;4178038;28;20062;-74
2022/05/10 03:51:43;;;;;;;22.20;11.00;;;11.60;99.90;;;;;;4181510;28;20057;-74
2022/05/10 03:53:45;;;;;;;11.75;10.63;;;11.60;99.90;;;;;;4181328;28;20060;-75
2022/05/10 03:55:47;;;;;;;12.90;9.85;;;11.50;99.90;;;;;;4173486;28;20153;-74
2022/05/10 03:57:50;;;;;;;11.35;10.10;;;11.50;99.90;;;;;;4175837;28;20809;-74
2022/05/10 03:59:52;;;;;;;13.40;10.23;;;11.50;99.90;;;;;;4171809;28;20121;-75
2022/05/10 04:01:53;;;;;;;11.52;10.48;;;11.50;99.90;;;;;;4170738;28;20066;-74
2022/05/10 04:04:01;;;;;;;15.32;10.73;;;11.50;99.90;;;;;;4175266;28;20058;-74
2022/05/10 04:06:04;;;;;;;11.05;9.95;;;11.50;99.90;;;;;;4174951;28;20062;-74
2022/05/10 04:08:06;;;;;;;11.15;10.15;;;11.50;99.90;;;;;;4178435;28;20041;-74
2022/05/10 04:10:09;;;;;;;12.60;10.05;;;11.50;99.90;;;;;;4180128;28;20711;-74
2022/05/10 04:12:11;;;;;;;11.07;10.10;;;11.50;99.90;;;;;;4174632;28;20062;-74
2022/05/10 04:14:13;;;;;;;11.00;10.05;;;11.50;99.90;;;;;;4181027;28;20053;-74
2022/05/10 04:16:16;;;;;;;11.23;10.13;;;11.40;99.90;;;;;;4180197;28;20057;-74
2022/05/10 04:18:18;;;;;;;11.73;10.63;;;11.40;99.90;;;;;;4178211;28;20066;-74
2022/05/10 04:20:20;;;;;;;12.27;10.40;;;11.50;99.90;;;;;;4179287;28;20176;-74
2022/05/10 04:22:22;;;;;;;10.80;9.73;;;11.50;99.90;;;;;;4176144;28;20117;-75
2022/05/10 04:24:44;;;;;;;12.60;10.02;;;11.50;99.90;;;;;;4171918;28;20797;-75
2022/05/10 04:26:47;;;;;;;14.18;10.23;;;11.60;99.90;;;;;;4180224;28;20108;-74
2022/05/10 04:28:49;;;;;;;12.27;9.57;;;11.60;99.90;;;;;;4174401;28;20892;-74
2022/05/10 04:30:50;;;;;;;11.52;10.13;;;11.70;99.90;;;;;;4179442;28;20627;-75
2022/05/10 04:32:58;;;;;;;10.32;9.38;;;11.70;99.90;;;;;;4179075;28;20089;-74
2022/05/10 04:34:59;;;;;;;10.88;9.77;;;11.70;99.90;;;;;;4178376;28;20053;-74
2022/05/10 04:37:01;;;;;;;10.23;9.32;;;11.80;99.90;;;;;;4174551;28;20727;-74
2022/05/10 04:39:03;;;;;;;12.13;8.80;;;11.90;99.90;;;;;;4175388;28;20053;-73
2022/05/10 04:43:25;;;;;;;10.10;9.10;;;12.10;99.90;;;;;;4178996;28;20076;-74
2022/05/10 04:45:27;;;;;;;13.02;9.93;;;12.30;99.90;;;;;;4178711;28;20176;-75
2022/05/10 04:47:29;;;;;;;10.10;9.10;;;12.40;99.90;;;;;;4191729;22;21482;-73
2022/05/10 04:49:31;;;;;;;11.48;9.65;;;12.40;99.90;;;;;;4175530;28;20057;-73
2022/05/10 04:51:34;;;;;;;11.32;9.55;;;12.50;99.90;;;;;;4174085;28;20054;-74
2022/05/10 04:53:35;;;;;;;11.07;9.88;;;12.70;99.90;;;;;;4175294;28;20876;-73
2022/05/10 04:55:37;;;;;;;11.07;9.73;;;12.80;99.90;;;;;;4173875;28;20077;-73
2022/05/10 04:57:39;;;;;;;14.15;9.85;;;12.90;99.90;;;;;;4170678;28;20058;-74
2022/05/10 04:59:41;;;;;;;9.52;8.55;;;13.10;99.90;;;;;;4175912;28;20695;-74
2022/05/10 05:01:42;;;;;;;12.30;10.25;;;13.30;99.90;;;;;;4177165;28;20057;-73
2022/05/10 05:03:47;;;;;;;12.05;8.63;;;13.50;99.90;;;;;;4174230;28;20057;-73
2022/05/10 05:05:49;;;;;;;10.02;9.07;;;13.70;99.90;;;;;;4178990;28;20762;-74
2022/05/10 05:07:51;;;;;;;10.50;9.02;;;13.80;99.90;;;;;;4183073;28;20057;-73
2022/05/10 05:09:52;;;;;;;11.23;9.80;;;13.90;99.90;;;;;;4178827;28;20062;-73
2022/05/10 05:11:54;;;;;;;10.27;9.27;;;14.00;99.90;;;;;;4179446;28;20053;-72
2022/05/10 05:13:56;;;;;;;9.20;8.40;;;14.10;99.90;;;;;;4200384;28;20906;-73
2022/05/10 05:15:57;;;;;;;9.70;8.70;;;14.20;99.90;;;;;;4182113;28;20054;-74
2022/05/10 05:18:03;;;;;;;9.75;8.85;;;14.30;99.90;;;;;;4182459;28;20061;-74
2022/05/10 05:20:05;;;;;;;11.20;9.13;;;14.50;99.60;;;;;;4182605;28;20151;-73
2022/05/10 05:22:07;;;;;;;11.50;9.07;;;14.60;98.90;;;;;;4178161;28;20093;-73
2022/05/10 05:24:11;;;;;;;9.20;8.30;;;14.70;98.40;;;;;;4178329;28;20863;-73
2022/05/10 05:26:13;;;;;;;10.02;9.20;;;14.80;97.90;;;;;;4184109;28;20867;-74
2022/05/10 05:28:15;;;;;;;9.20;8.38;;;14.90;97.80;;;;;;4184969;28;20684;-74
2022/05/10 05:30:17;;;;;;;9.52;8.63;;;15.10;97.20;;;;;;4180403;28;20825;-73
2022/05/10 05:32:24;;;;;;;9.20;8.05;;;15.20;96.00;;;;;;4181262;28;20153;-73
2022/05/10 05:34:26;;;;;;;8.63;7.80;;;15.20;95.70;;;;;;4174871;28;20160;-73
2022/05/10 05:36:27;;;;;;;8.20;7.40;;;15.30;95.90;;;;;;4175159;28;20050;-76
2022/05/10 05:38:29;;;;;;;8.95;8.25;;;15.30;95.20;;;;;;4179592;28;20057;-73
2022/05/10 05:40:33;;;;;;;7.93;7.32;;;15.40;94.70;;;;;;4181278;28;20104;-73
2022/05/10 05:42:36;;;;;;;8.65;7.80;;;15.50;94.40;;;;;;4180965;28;20053;-74
2022/05/10 05:44:38;;;;;;;9.43;8.52;;;15.60;94.80;;;;;;4179680;28;20184;-74
2022/05/10 05:46:39;;;;;;;9.10;7.82;;;15.70;94.60;;;;;;4181078;28;20165;-74
2022/05/10 05:48:41;;;;;;;9.27;8.38;;;15.80;93.90;;;;;;4182459;28;20157;-74
2022/05/10 05:50:43;;;;;;;9.23;7.57;;;15.90;93.90;;;;;;4181889;28;20093;-74
2022/05/10 05:52:47;;;;;;;7.97;7.15;;;16.00;93.70;;;;;;4182976;28;20185;-74
2022/05/10 05:54:53;;;;;;;9.13;8.23;;;16.10;93.50;;;;;;4183900;28;20058;-75
2022/05/10 05:56:59;;;;;;;8.57;7.68;;;16.20;92.50;;;;;;4181982;28;20075;-73
2022/05/10 05:59:01;;;;;;;7.72;7.03;;;16.30;92.70;;;;;;4181707;28;20180;-74
2022/05/10 06:01:10;;;;;;;7.47;6.57;;;16.30;92.60;;;;;;4180841;28;20049;-71
2022/05/10 06:03:12;;;;;;;6.90;6.40;;;16.40;92.00;;;;;;4183026;28;20112;-71
2022/05/10 06:05:14;;;;;;;7.57;6.82;;;16.50;91.40;;;;;;4180776;28;20075;-71
2022/05/10 06:07:16;;;;;;;7.63;6.90;;;16.70;91.00;;;;;;4183092;28;20050;-71
2022/05/10 06:09:22;;;;;;;9.23;8.13;;;16.80;91.00;;;;;;4183630;28;20093;-70
2022/05/10 06:11:24;;;;;;;7.40;6.80;;;16.90;90.90;;;;;;4181565;28;20065;-70
2022/05/10 06:13:27;;;;;;;7.75;7.13;;;17.00;90.90;;;;;;4187508;28;20171;-69
2022/05/10 06:15:30;;;;;;;7.60;7.00;;;17.00;91.00;;;;;;4180136;28;20045;-71
2022/05/10 06:17:31;;;;;;;8.85;6.70;;;17.10;90.90;;;;;;4181259;28;20072;-71
2022/05/10 06:19:36;;;;;;;7.05;6.45;;;17.20;90.60;;;;;;4182620;28;20042;-70
2022/05/10 06:21:39;;;;;;;7.15;6.40;;;17.20;90.80;;;;;;4181210;28;20753;-70
2022/05/10 06:23:40;;;;;;;6.72;6.13;;;17.30;90.80;;;;;;4182850;28;20126;-70
2022/05/10 06:25:42;;;;;;;6.57;6.15;;;17.40;90.60;;;;;;4183128;28;20073;-70
2022/05/10 06:27:45;;;;;;;6.95;6.35;;;17.50;90.50;;;;;;4181679;28;20160;-70
2022/05/10 06:29:47;;;;;;;6.28;5.78;;;17.60;89.10;;;;;;4183345;28;20156;-70
2022/05/10 06:31:49;;;;;;;6.20;5.70;;;17.60;89.40;;;;;;4183109;28;20655;-70
2022/05/10 06:33:51;;;;;;;5.85;5.45;;;17.60;88.20;;;;;;4180124;28;20061;-70
2022/05/10 06:35:53;;;;;;;7.70;6.50;;;17.60;88.40;;;;;;4180629;28;20741;-70
2022/05/10 06:40:17;;;;;;;5.78;5.35;;;17.70;88.40;;;;;;4181992;28;20124;-70
2022/05/10 06:42:23;;;;;;;6.63;6.10;;;17.70;88.10;;;;;;4180552;28;20277;-69
2022/05/10 06:44:26;;;;;;;6.50;5.75;;;17.80;87.70;;;;;;4182585;28;20061;-70
2022/05/10 06:46:32;;;;;;;6.72;6.13;;;17.90;87.50;;;;;;4179310;28;20053;-70
2022/05/10 06:48:36;;;;;;;6.20;5.65;;;18.00;87.30;;;;;;4179072;28;20057;-70
2022/05/10 06:50:39;;;;;;;6.55;6.05;;;18.20;87.10;;;;;;4181134;28;20077;-70
2022/05/10 06:52:41;;;;;;;6.43;5.90;;;18.30;86.50;;;;;;4178829;28;20785;-70
2022/05/10 06:54:48;;;;;;;5.85;5.35;;;18.50;85.60;;;;;;4183356;28;20065;-70
2022/05/10 06:56:50;;;;;;;4.88;4.57;;;18.50;84.80;;;;;;4179857;28;20064;-70
2022/05/10 06:58:52;;;;;;;5.80;5.38;;;18.60;84.50;;;;;;4177106;28;20176;-71
2022/05/10 07:00:54;;;;;;;6.15;5.55;;;18.70;83.60;;;;;;4176646;28;20058;-71
2022/05/10 07:02:55;;;;;;;5.57;5.05;;;18.80;84.00;;;;;;4179033;28;20072;-70
2022/05/10 07:04:57;;;;;;;5.28;4.88;;;18.80;82.80;;;;;;4177878;28;20151;-70
2022/05/10 07:06:59;;;;;;;5.55;5.15;;;18.80;81.90;;;;;;4179434;28;20074;-70
2022/05/10 07:09:00;;;;;;;5.88;5.28;;;18.80;80.70;;;;;;4179167;28;20057;-70
2022/05/10 07:11:03;;;;;;;7.10;4.65;;;18.80;80.30;;;;;;4179012;28;20075;-70
2022/05/10 07:13:05;;;;;;;4.78;4.38;;;18.80;80.40;;;;;;4180578;28;20143;-70
2022/05/10 07:15:10;;;;;;;5.00;4.60;;;18.90;80.80;;;;;;4174165;28;20903;-70
2022/05/10 07:17:13;;;;;;;5.38;4.90;;;19.00;80.50;;;;;;4175787;28;20062;-70
2022/05/10 07:19:14;;;;;;;5.82;5.35;;;19.00;80.10;;;;;;4180258;28;20062;-70
2022/05/10 07:21:16;;;;;;;4.70;4.30;;;19.00;79.60;;;;;;4177129;28;20058;-70
2022/05/10 07:23:29;;;;;;;5.47;5.07;;;19.00;80.60;;;;;;4176689;28;20065;-70
2022/05/10 07:25:38;;;;;;;5.90;5.35;;;18.90;80.40;;;;;;4178245;28;20228;-71
2022/05/10 07:27:41;;;;;;;5.05;4.65;;;19.00;80.20;;;;;;4180238;28;20791;-70
2022/05/10 07:29:43;;;;;;;4.47;4.18;;;19.10;79.60;;;;;;4181775;28;20049;-70
2022/05/10 07:31:45;;;;;;;5.35;5.05;;;19.20;80.00;;;;;;4180287;28;20640;-70
2022/05/10 07:33:46;;;;;;;5.05;4.53;;;19.30;80.20;;;;;;4178165;28;20053;-70
2022/05/10 07:38:10;;;;;;;5.03;4.50;;;19.40;80.00;;;;;;4173853;28;20054;-70
2022/05/10 07:40:12;;;;;;;5.65;5.10;;;19.50;79.30;;;;;;4174841;28;20156;-70
2022/05/10 07:42:14;;;;;;;4.90;4.60;;;19.50;78.10;;;;;;4172864;28;22052;-70
2022/05/10 07:44:16;;;;;;;5.80;5.30;;;19.60;78.90;;;;;;4175753;28;20058;-70
2022/05/10 07:46:17;;;;;;;4.72;4.35;;;19.60;78.60;;;;;;4177962;28;20065;-70
2022/05/10 07:48:19;;;;;;;5.10;4.68;;;19.60;78.30;;;;;;4175030;28;20080;-70
2022/05/10 07:50:21;;;;;;;5.00;4.57;;;19.70;78.50;;;;;;4173699;28;20064;-71
2022/05/10 07:52:23;;;;;;;6.00;5.35;;;19.70;80.20;;;;;;4173538;28;20384;-70
2022/05/10 07:54:25;;;;;;;4.70;4.40;;;19.80;79.40;;;;;;4175840;28;20064;-70
2022/05/10 07:56:26;;;;;;;5.15;4.75;;;20.00;78.90;;;;;;4181017;28;20053;-70
2022/05/10 07:58:29;;;;;;;4.90;4.47;;;20.20;78.50;;;;;;4175879;28;20058;-71
2022/05/10 08:00:36;;;;;;;5.35;4.90;;;20.20;78.30;;;;;;4176156;28;20068;-70
2022/05/10 08:02:42;;;;;;;5.30;4.80;;;20.10;77.60;;;;;;4176959;28;20853;-70
2022/05/10 08:04:44;;;;;;;4.85;4.50;;;20.20;77.50;;;;;;4171179;28;20252;-71
2022/05/10 08:06:46;;;;;;;4.93;4.47;;;20.10;77.60;;;;;;4174108;28;20152;-70
2022/05/10 08:08:49;;;;;;;4.93;4.43;;;20.10;77.70;;;;;;4167830;28;20064;-70
2022/05/10 08:10:53;;;;;;;4.32;4.03;;;20.10;76.60;;;;;;4177611;28;20057;-70
2022/05/10 08:12:54;;;;;;;9.05;4.55;;;20.20;76.90;;;;;;4178807;28;20101;-70
2022/05/10 08:14:56;;;;;;;7.03;4.80;;;20.20;76.20;;;;;;4172212;28;20053;-70
2022/05/10 08:16:58;;;;;;;5.32;4.93;;;20.30;74.80;;;;;;4174925;28;20073;-70
2022/05/10 08:19:00;;;;;;;4.90;4.50;;;20.40;74.60;;;;;;4171739;28;20084;-71
2022/05/10 08:21:03;;;;;;;5.00;4.60;;;20.40;73.80;;;;;;4177292;28;20050;-71
2022/05/10 08:23:06;;;;;;;6.78;4.38;;;20.40;72.80;;;;;;4175097;28;20947;-70
2022/05/10 08:25:11;;;;;;;4.55;3.95;;;20.30;73.60;;;;;;4177796;28;20068;-70
2022/05/10 08:27:12;;;;;;;5.88;4.93;;;20.20;72.60;;;;;;4172622;28;20884;-70
2022/05/10 08:29:14;;;;;;;4.57;4.28;;;20.10;73.90;;;;;;4174445;28;20060;-70
2022/05/10 08:31:17;;;;;;;5.28;4.32;;;20.10;74.30;;;;;;4175868;28;20062;-71
2022/05/10 08:33:20;;;;;;;4.78;4.35;;;20.20;74.60;;;;;;4175639;28;20135;-70
2022/05/10 08:35:22;;;;;;;5.05;4.65;;;20.30;74.80;;;;;;4174524;28;20079;-70
2022/05/10 08:37:24;;;;;;;5.05;4.65;;;20.40;76.00;;;;;;4173220;28;20729;-71
2022/05/10 08:39:25;;;;;;;5.00;4.05;;;20.50;73.90;;;;;;4175626;28;20062;-70
2022/05/10 08:41:43;;;;;;;5.15;4.75;;;20.50;74.40;;;;;;4173687;28;20058;-70
2022/05/10 08:44:14;;;;;;;4.78;4.30;;;20.60;74.40;;;;;;4177620;28;20180;-69
2022/05/10 08:46:23;;;;;;;5.50;3.95;;;20.70;73.40;;;;;;4175092;28;20058;-69
2022/05/10 08:48:28;;;;;;;4.82;3.92;;;20.70;73.80;;;;;;4174940;28;20058;-71
2022/05/10 08:50:31;;;;;;;4.55;4.15;;;20.80;70.90;;;;;;4174692;28;20080;-69
2022/05/10 08:52:44;;;;;;;5.32;4.93;;;20.90;70.30;;;;;;4174790;28;20188;-69
2022/05/10 08:54:46;;;;;;;5.00;4.00;;;20.90;68.70;;;;;;4174325;28;20058;-69
2022/05/10 08:56:53;;;;;;;4.32;3.92;;;20.90;68.40;;;;;;4173612;28;20057;-69
2022/05/10 08:59:09;;;;;;;4.57;4.18;;;21.00;69.00;;;;;;4175833;28;20067;-70
2022/05/10 09:01:22;;;;;;;4.63;4.22;;;21.10;68.70;;;;;;4179382;28;20064;-69
2022/05/10 09:03:44;;;;;;;3.97;3.75;;;21.00;67.30;;;;;;4173107;28;20057;-69
2022/05/10 09:05:47;;;;;;;5.10;4.53;;;21.10;69.30;;;;;;4171441;28;20899;-69
2022/05/10 09:08:25;;;;;;;6.05;4.38;;;21.20;68.70;;;;;;4172449;28;20071;-70
2022/05/10 09:10:49;;;;;;;3.70;3.40;;;21.30;68.60;;;;;;4179218;28;20062;-72
2022/05/10 09:13:02;;;;;;;3.38;3.17;;;21.40;65.80;;;;;;4176481;28;20053;-72
2022/05/10 09:15:06;;;;;;;3.35;3.10;;;21.50;64.70;;;;;;4175928;28;20205;-69
2022/05/10 09:17:10;;;;;;;3.63;3.33;;;21.50;65.00;;;;;;4176554;28;20062;-69
2022/05/10 09:19:12;;;;;;;4.00;3.30;;;21.50;63.50;;;;;;4168415;28;20241;-70
2022/05/10 09:21:26;;;;;;;3.28;3.08;;;21.40;63.00;;;;;;4168773;28;20662;-71
2022/05/10 09:23:37;;;;;;;3.20;2.97;;;21.50;63.30;;;;;;4175668;28;20171;-70
2022/05/10 09:25:42;;;;;;;4.20;3.55;;;21.60;63.50;;;;;;4175684;28;20062;-70
2022/05/10 09:27:44;;;;;;;2.92;2.72;;;21.70;62.20;;;;;;4182137;28;20061;-70
2022/05/10 09:29:46;;;;;;;4.07;3.22;;;21.80;62.00;;;;;;4170389;28;20058;-70
2022/05/10 09:36:31;;;;;;;3.90;3.70;;;22.20;58.90;;;;;;4176952;28;19929;-70
2022/05/10 09:38:34;;;;;;;3.47;2.70;;;22.20;58.80;;;;;;4173598;28;20215;-69
2022/05/10 09:40:47;;;;;;;3.58;3.28;;;22.30;55.90;;;;;;4174872;28;20058;-71
2022/05/10 09:42:51;;;;;;;3.03;2.83;;;22.30;57.00;;;;;;4175014;28;20061;-69
2022/05/10 09:45:15;;;;;;;14.05;12.57;;;22.30;56.90;;;;;;4175027;28;20054;-70
2022/05/10 09:47:18;;;;;;;3.17;2.88;;;22.30;57.90;;;;;;4172795;28;20054;-70
2022/05/10 09:49:37;;;;;;;3.00;2.80;;;22.30;57.70;;;;;;4176374;28;20054;-70
2022/05/10 09:51:41;;;;;;;3.28;3.08;;;22.50;58.40;;;;;;4173367;28;20058;-70
2022/05/10 09:53:43;;;;;;;3.15;2.95;;;22.60;58.90;;;;;;4174971;28;20124;-70
2022/05/10 09:56:02;;;;;;;3.20;3.00;;;22.60;58.00;;;;;;4177190;28;20329;-71
2022/05/10 09:58:20;;;;;;;2.63;2.45;;;22.60;57.20;;;;;;4178321;28;20092;-71
2022/05/10 10:00:39;;;;;;;2.67;2.47;;;22.60;54.20;;;;;;4178126;28;20173;-70
2022/05/10 10:02:42;;;;;;;3.88;2.63;;;22.80;53.20;;;;;;4179304;28;20061;-71
2022/05/10 10:04:45;;;;;;;2.95;2.72;;;22.80;53.00;;;;;;4177891;28;20054;-70
2022/05/10 10:07:15;;;;;;;2.47;2.33;;;22.70;52.20;;;;;;4175755;28;20061;-70
2022/05/10 10:09:30;;;;;;;3.20;2.90;;;22.80;54.30;;;;;;4176262;28;20883;-71
2022/05/10 10:11:34;;;;;;;3.63;3.33;;;22.90;57.00;;;;;;4177430;28;20096;-70
2022/05/10 10:13:39;;;;;;;5.40;3.22;;;23.10;55.80;;;;;;4179058;28;20160;-70
2022/05/10 10:15:43;;;;;;;2.83;2.65;;;23.10;54.00;;;;;;4175679;28;20141;-71
2022/05/10 10:17:58;;;;;;;3.30;3.00;;;23.10;54.40;;;;;;4175089;28;20050;-70
2022/05/10 10:20:11;;;;;;;2.97;2.78;;;23.10;53.70;;;;;;4175845;28;20880;-70
2022/05/10 10:22:17;;;;;;;3.08;2.88;;;23.20;54.10;;;;;;4173710;28;21019;-70
2022/05/10 10:24:34;;;;;;;2.65;2.45;;;23.40;53.30;;;;;;4172451;28;20058;-70
2022/05/10 10:26:46;;;;;;;4.40;3.13;;;23.50;53.10;;;;;;4176781;28;20061;-70
2022/05/10 10:28:53;;;;;;;3.13;2.92;;;23.70;53.10;;;;;;4182140;28;20057;-71
2022/05/10 10:31:00;;;;;;;3.20;3.00;;;23.90;52.10;;;;;;4175597;28;21413;-71
2022/05/10 10:33:12;;;;;;;4.45;2.60;;;24.10;51.70;;;;;;4170930;28;20061;-71
2022/05/10 10:35:27;;;;;;;3.60;3.15;;;24.30;51.10;;;;;;4176362;28;20160;-71
2022/05/10 10:37:38;;;;;;;2.90;2.70;;;24.40;50.90;;;;;;4176501;28;20068;-70
2022/05/10 10:40:05;;;;;;;2.47;2.20;;;24.50;50.40;;;;;;4174102;28;20088;-70
2022/05/10 10:42:29;;;;;;;1.92;1.83;;;24.70;49.20;;;;;;4172302;28;20065;-71
2022/05/10 10:44:36;;;;;;;2.08;1.90;;;24.80;46.50;;;;;;4179721;28;20856;-71
2022/05/10 10:46:57;;;;;;;2.05;1.95;;;24.80;47.10;;;;;;4173576;28;20078;-70
2022/05/10 10:49:07;;;;;;;4.25;2.35;;;24.70;46.90;;;;;;4193265;22;20049;-78
2022/05/10 10:51:12;;;;;;;2.75;2.55;;;24.70;47.70;;;;;;4168081;28;20093;-79
2022/05/10 10:53:14;;;;;;;4.25;2.75;;;24.60;49.20;;;;;;4183378;28;20822;-78
2022/05/10 10:55:18;;;;;;;3.60;2.50;;;24.50;50.10;;;;;;4173590;28;20076;-77
2022/05/10 10:57:42;;;;;;;2.95;2.65;;;24.20;49.90;;;;;;4175804;28;20042;-76
2022/05/10 11:00:00;;;;;;;3.13;2.40;;;24.00;51.70;;;;;;4173184;28;20049;-78
2022/05/10 11:02:21;;;;;;;2.33;2.22;;;24.00;52.20;;;;;;4166286;28;20054;-78
2022/05/10 11:04:46;;;;;;;3.67;2.40;;;24.10;51.10;;;;;;4166533;28;20050;-78
2022/05/10 11:06:51;;;;;;;2.40;2.20;;;24.50;50.40;;;;;;4172650;28;20053;-78
2022/05/10 11:09:04;;;;;;;2.10;1.90;;;24.70;51.00;;;;;;4171446;28;20065;-78
2022/05/10 11:11:19;;;;;;;2.22;2.03;;;24.90;49.00;;;;;;4164824;28;20112;-79